Point Comfort — WDG5997 — position and weather

sailwx.info

Track history (hours):
 
Tides and Currents Weather Stations Pressure Air Temp Water Temp Dewpoint Dewpoint Depression Visibility Wind Speed Wind Dir Waves Ship Positions

Point Comfort

Owner: Higman Barge Lines, Inc, Orange, TX. More information available from US FCC via Universal Licensing System and Coast Guard Vessel Documentation Center.

Last reported at 2017-Dec-13 00:35 UTC. Time now 2017-Dec-15 23:20 UTC.
Position N 27°49' W 097°24'.

Length 24 m; draft 3 m.

Type: Towing. MMSI: 367552440.

Date/timePositionNaut miles runAvg speedWind from/ knotsBaromVisibWave heightAir tempDewpointWater temp
2017-Dec-13 00:35N 27°49' W 097°24'0 0.0
2017-Dec-13 00:30N 27°49' W 097°24'0 0.0
2017-Dec-13 00:00N 27°49' W 097°24'0 0.1
2017-Dec-12 23:29N 27°49' W 097°24'0 0.0
2017-Dec-12 15:30N 27°49' W 097°24'0 0.0
2017-Dec-12 14:59N 27°49' W 097°24'0 0.0
2017-Dec-12 14:30N 27°49' W 097°24'0 0.0
2017-Dec-12 14:00N 27°49' W 097°24'0 0.0
2017-Dec-12 13:30N 27°49' W 097°24'0 0.0
2017-Dec-12 13:00N 27°49' W 097°24'0 0.0
2017-Dec-12 12:29N 27°49' W 097°24'0 0.0
2017-Dec-12 11:59N 27°49' W 097°24'0 0.0
2017-Dec-12 11:29N 27°49' W 097°24'0 0.0
2017-Dec-12 11:01N 27°49' W 097°24'0 0.0
2017-Dec-12 10:30N 27°49' W 097°24'0 0.0
2017-Dec-12 09:59N 27°49' W 097°24'0 0.0
2017-Dec-12 08:36N 27°49' W 097°24'0 0.0
2017-Dec-12 08:30N 27°49' W 097°24'0 0.0
2017-Dec-12 08:00N 27°49' W 097°24'0 0.0
2017-Dec-12 07:29N 27°49' W 097°24'0 0.0
2017-Dec-12 06:59N 27°49' W 097°24'0 0.0
2017-Dec-12 06:30N 27°49' W 097°24'0 0.0
2017-Dec-12 05:59N 27°49' W 097°24'0 0.0
2017-Dec-12 05:30N 27°49' W 097°24'0 0.0
2017-Dec-12 05:00N 27°49' W 097°24'0 0.0
2017-Dec-12 04:30N 27°49' W 097°24'0 0.0
2017-Dec-12 03:59N 27°49' W 097°24'0 0.0
2017-Dec-12 03:30N 27°49' W 097°24'0 0.0
2017-Dec-12 02:59N 27°49' W 097°24'0 0.0
2017-Dec-12 02:30N 27°49' W 097°24'0 0.1
2017-Dec-12 01:59N 27°49' W 097°24'0 0.0
2017-Dec-12 01:29N 27°49' W 097°24'0 0.0
2017-Dec-12 01:00N 27°49' W 097°24'0 0.0
2017-Dec-12 00:30N 27°49' W 097°24'0 0.0
2017-Dec-11 23:59N 27°49' W 097°24'0 0.0
2017-Dec-11 23:30N 27°49' W 097°24'0 0.0
2017-Dec-11 23:00N 27°49' W 097°24'0 0.0
2017-Dec-11 22:29N 27°49' W 097°24'0 0.0
2017-Dec-11 22:00N 27°49' W 097°24'0 0.0
2017-Dec-11 21:30N 27°49' W 097°24'0 0.0
2017-Dec-11 21:00N 27°49' W 097°24'0 0.0
2017-Dec-11 20:29N 27°49' W 097°24'0 0.0
2017-Dec-11 20:00N 27°49' W 097°24'0 0.0
2017-Dec-11 04:14N 27°49' W 097°24'0 0.0
2017-Dec-11 04:00N 27°49' W 097°24'0 0.0
2017-Dec-11 03:30N 27°49' W 097°24'0 0.0
2017-Dec-11 03:00N 27°49' W 097°24'0 0.0
2017-Dec-11 02:29N 27°49' W 097°24'0 0.0
2017-Dec-11 02:00N 27°49' W 097°24'1 1.6
2017-Dec-11 01:30N 27°49' W 097°23'4 8.2
2017-Dec-11 01:00N 27°49' W 097°18'4 8.0
2017-Dec-11 00:29N 27°49' W 097°14'4 7.7
2017-Dec-11 00:00N 27°50' W 097°10'4 7.4
2017-Dec-10 23:29N 27°50' W 097°05'3 6.4
2017-Dec-10 22:59N 27°53' W 097°03'4 7.8
2017-Dec-10 22:30N 27°56' W 097°04'3 6.6
2017-Dec-10 21:59N 27°59' W 097°02'3 7.2
2017-Dec-10 21:30N 28°02' W 096°60'4 6.9
2017-Dec-10 21:00N 28°05' W 096°57'3 6.7
2017-Dec-10 20:29N 28°08' W 096°55'3 6.4
2017-Dec-10 20:00N 28°10' W 096°53'3 5.7
2017-Dec-10 19:29N 28°12' W 096°50'129 2.7
2017-Dec-08 20:10N 29°31' W 094°53'1 8.6
2017-Dec-08 20:00N 29°32' W 094°54'4 8.2
2017-Dec-08 19:30N 29°36' W 094°57'4 7.3
2017-Dec-08 19:00N 29°39' W 094°58'4 8.0
2017-Dec-08 18:29N 29°42' W 095°01'5 6.9
2017-Dec-08 17:46N 29°46' W 095°05'3 6.8
2017-Dec-08 17:22N 29°44' W 095°08'4 6.8
2017-Dec-08 16:51N 29°44' W 095°12'0 0.1
2017-Dec-08 16:29N 29°44' W 095°12'0 0.0
2017-Dec-08 16:00N 29°44' W 095°12'0 0.0
2017-Dec-08 15:29N 29°45' W 095°12'0 0.0
2017-Dec-08 14:59N 29°44' W 095°12'0 0.0
2017-Dec-08 14:18N 29°44' W 095°12'0 0.0
2017-Dec-08 13:52N 29°44' W 095°12'0 0.0
2017-Dec-08 13:21N 29°44' W 095°12'0 0.0
2017-Dec-08 12:59N 29°44' W 095°12'0 0.0
2017-Dec-08 12:30N 29°44' W 095°12'0 0.0
2017-Dec-08 12:00N 29°44' W 095°12'0 0.0
2017-Dec-08 11:30N 29°44' W 095°12'0 0.0
2017-Dec-08 11:00N 29°44' W 095°12'0 0.0
2017-Dec-08 10:30N 29°44' W 095°12'0 0.0
2017-Dec-08 10:00N 29°44' W 095°12'0 0.0
2017-Dec-08 09:30N 29°44' W 095°12'0 0.0
2017-Dec-08 09:00N 29°44' W 095°12'0 0.0
2017-Dec-08 08:30N 29°44' W 095°12'0 0.0
2017-Dec-08 08:00N 29°44' W 095°12'0 0.0
2017-Dec-08 07:30N 29°44' W 095°12'0 0.0
2017-Dec-08 07:00N 29°44' W 095°12'0 0.0
2017-Dec-08 06:31N 29°44' W 095°12'0 0.0
2017-Dec-08 05:59N 29°45' W 095°12'0 0.0
2017-Dec-08 05:30N 29°44' W 095°12'0 0.0
2017-Dec-08 05:00N 29°44' W 095°12'0 0.0
2017-Dec-08 04:30N 29°44' W 095°12'0 0.0
2017-Dec-08 04:00N 29°44' W 095°12'0 0.0
2017-Dec-08 03:31N 29°44' W 095°12'0 0.0
2017-Dec-08 03:00N 29°44' W 095°12'0 0.0
2017-Dec-08 02:30N 29°44' W 095°12'0 0.0
2017-Dec-08 02:00N 29°44' W 095°12'0 0.0
2017-Dec-08 01:29N 29°44' W 095°12'0 0.0
2017-Dec-08 00:57N 29°44' W 095°12'0 0.0
2017-Dec-08 00:30N 29°44' W 095°12'0 0.0
2017-Dec-07 23:04N 29°44' W 095°12'0 0.0
2017-Dec-07 22:55N 29°45' W 095°12'0 0.0
2017-Dec-07 22:29N 29°44' W 095°12'0 0.0
2017-Dec-07 21:27N 29°44' W 095°12'0 0.0
2017-Dec-07 19:59N 29°45' W 095°12'0 0.0
2017-Dec-07 17:26N 29°45' W 095°12'0 0.0
2017-Dec-07 16:59N 29°45' W 095°12'0 0.0
2017-Dec-07 16:27N 29°45' W 095°12'0 0.0
2017-Dec-07 15:49N 29°45' W 095°12'0 0.0
2017-Dec-07 14:31N 29°45' W 095°12'0 0.0
2017-Dec-07 14:29N 29°45' W 095°12'0 0.0
2017-Dec-07 13:59N 29°45' W 095°12'0 0.0
2017-Dec-07 13:30N 29°45' W 095°12'0 0.0
2017-Dec-07 12:59N 29°45' W 095°12'0 0.0
2017-Dec-07 12:30N 29°45' W 095°12'0 0.0
2017-Dec-07 11:59N 29°45' W 095°12'1 2.6
2017-Dec-07 11:30N 29°45' W 095°11'2 5.0
2017-Dec-07 11:00N 29°44' W 095°08'3 5.2
2017-Dec-07 10:27N 29°46' W 095°05'1 0.9
2017-Dec-07 09:03N 29°47' W 095°06'0 0.0
2017-Dec-07 07:26N 29°47' W 095°06'0 0.1
2017-Dec-07 02:19N 29°47' W 095°05'1 1.6
2017-Dec-07 01:28N 29°46' W 095°05'2 3.6
2017-Dec-07 01:00N 29°45' W 095°04'0 0.4
2017-Dec-07 00:30N 29°45' W 095°04'  
2017-Dec-04 06:54N 29°47' W 095°06'0 0.0
2017-Dec-04 06:07N 29°47' W 095°06'0 0.0
2017-Dec-04 05:56N 29°47' W 095°06'0 0.0
2017-Dec-04 05:28N 29°47' W 095°06'0 0.0
2017-Dec-04 04:55N 29°47' W 095°06'0 0.0
2017-Dec-04 04:29N 29°47' W 095°06'0 0.0
2017-Dec-04 03:49N 29°47' W 095°06'0 0.0
2017-Dec-04 03:29N 29°47' W 095°06'0 0.0
2017-Dec-04 02:57N 29°47' W 095°06'0 0.0
2017-Dec-04 02:04N 29°47' W 095°06'0 0.0
2017-Dec-04 01:31N 29°47' W 095°06'0 0.0
2017-Dec-03 19:33N 29°47' W 095°06'0 0.0
2017-Dec-03 19:06N 29°47' W 095°06'0 0.0
2017-Dec-03 18:21N 29°47' W 095°06'0 0.0
2017-Dec-03 16:45N 29°47' W 095°06'0 0.0
2017-Dec-03 14:35N 29°47' W 095°06'0 0.0
2017-Dec-03 14:26N 29°47' W 095°06'0 0.0
2017-Dec-03 13:46N 29°47' W 095°06'0 0.0
2017-Dec-03 13:05N 29°47' W 095°06'0 0.0
2017-Dec-03 12:58N 29°47' W 095°06'0 0.0
2017-Dec-03 12:15N 29°47' W 095°06'0 0.0
2017-Dec-03 11:53N 29°47' W 095°06'0 0.0
2017-Dec-03 11:20N 29°47' W 095°06'0 0.0
2017-Dec-03 10:58N 29°47' W 095°06'0 0.0
2017-Dec-03 10:21N 29°47' W 095°06'0 0.0
2017-Dec-03 10:00N 29°47' W 095°06'0 0.0
2017-Dec-03 09:27N 29°47' W 095°06'0 0.0
2017-Dec-03 09:00N 29°47' W 095°06'0 0.0
2017-Dec-03 08:30N 29°47' W 095°06'0 0.0
2017-Dec-03 07:58N 29°47' W 095°06'0 0.0
2017-Dec-03 07:30N 29°47' W 095°06'0 0.0
2017-Dec-03 07:00N 29°47' W 095°06'0 0.0
2017-Dec-03 06:30N 29°47' W 095°06'0 0.0
2017-Dec-03 06:00N 29°47' W 095°06'0 0.0
2017-Dec-03 05:30N 29°47' W 095°06'0 0.0
2017-Dec-03 05:00N 29°47' W 095°06'0 0.0
2017-Dec-03 04:30N 29°47' W 095°06'0 0.0
2017-Dec-03 04:00N 29°47' W 095°06'0 0.0
2017-Dec-03 03:30N 29°47' W 095°06'0 0.0
2017-Dec-03 03:00N 29°47' W 095°06'0 0.0
2017-Dec-03 02:30N 29°47' W 095°06'0 0.0
2017-Dec-03 01:58N 29°47' W 095°06'0 0.0
2017-Dec-03 01:28N 29°47' W 095°06'0 0.0
2017-Dec-03 01:00N 29°47' W 095°06'  
Track history (hours):
 
Tides and Currents Weather Stations Pressure Air Temp Water Temp Dewpoint Dewpoint Depression Visibility Wind Speed Wind Dir Waves Ship Positions

Point Comfort

Owner: Higman Barge Lines, Inc, Orange, TX. More information available from US FCC via Universal Licensing System and Coast Guard Vessel Documentation Center.

Last reported at 2017-Dec-13 00:35 UTC. Time now 2017-Dec-15 23:20 UTC.
Position N 27°49' W 097°24'.

Length 24 m; draft 3 m.

Type: Towing. MMSI: 367552440.

Date/timePositionNaut miles runAvg speedWind from/ knotsBaromVisibWave heightAir tempDewpointWater temp
2017-Dec-13 00:35N 27°49' W 097°24'0 0.0
2017-Dec-13 00:30N 27°49' W 097°24'0 0.0
2017-Dec-13 00:00N 27°49' W 097°24'0 0.1
2017-Dec-12 23:29N 27°49' W 097°24'0 0.0
2017-Dec-12 15:30N 27°49' W 097°24'0 0.0
2017-Dec-12 14:59N 27°49' W 097°24'0 0.0
2017-Dec-12 14:30N 27°49' W 097°24'0 0.0
2017-Dec-12 14:00N 27°49' W 097°24'0 0.0
2017-Dec-12 13:30N 27°49' W 097°24'0 0.0
2017-Dec-12 13:00N 27°49' W 097°24'0 0.0
2017-Dec-12 12:29N 27°49' W 097°24'0 0.0
2017-Dec-12 11:59N 27°49' W 097°24'0 0.0
2017-Dec-12 11:29N 27°49' W 097°24'0 0.0
2017-Dec-12 11:01N 27°49' W 097°24'0 0.0
2017-Dec-12 10:30N 27°49' W 097°24'0 0.0
2017-Dec-12 09:59N 27°49' W 097°24'0 0.0
2017-Dec-12 08:36N 27°49' W 097°24'0 0.0
2017-Dec-12 08:30N 27°49' W 097°24'0 0.0
2017-Dec-12 08:00N 27°49' W 097°24'0 0.0
2017-Dec-12 07:29N 27°49' W 097°24'0 0.0
2017-Dec-12 06:59N 27°49' W 097°24'0 0.0
2017-Dec-12 06:30N 27°49' W 097°24'0 0.0
2017-Dec-12 05:59N 27°49' W 097°24'0 0.0
2017-Dec-12 05:30N 27°49' W 097°24'0 0.0
2017-Dec-12 05:00N 27°49' W 097°24'0 0.0
2017-Dec-12 04:30N 27°49' W 097°24'0 0.0
2017-Dec-12 03:59N 27°49' W 097°24'0 0.0
2017-Dec-12 03:30N 27°49' W 097°24'0 0.0
2017-Dec-12 02:59N 27°49' W 097°24'0 0.0
2017-Dec-12 02:30N 27°49' W 097°24'0 0.1
2017-Dec-12 01:59N 27°49' W 097°24'0 0.0
2017-Dec-12 01:29N 27°49' W 097°24'0 0.0
2017-Dec-12 01:00N 27°49' W 097°24'0 0.0
2017-Dec-12 00:30N 27°49' W 097°24'0 0.0
2017-Dec-11 23:59N 27°49' W 097°24'0 0.0
2017-Dec-11 23:30N 27°49' W 097°24'0 0.0
2017-Dec-11 23:00N 27°49' W 097°24'0 0.0
2017-Dec-11 22:29N 27°49' W 097°24'0 0.0
2017-Dec-11 22:00N 27°49' W 097°24'0 0.0
2017-Dec-11 21:30N 27°49' W 097°24'0 0.0
2017-Dec-11 21:00N 27°49' W 097°24'0 0.0
2017-Dec-11 20:29N 27°49' W 097°24'0 0.0
2017-Dec-11 20:00N 27°49' W 097°24'0 0.0
2017-Dec-11 04:14N 27°49' W 097°24'0 0.0
2017-Dec-11 04:00N 27°49' W 097°24'0 0.0
2017-Dec-11 03:30N 27°49' W 097°24'0 0.0
2017-Dec-11 03:00N 27°49' W 097°24'0 0.0
2017-Dec-11 02:29N 27°49' W 097°24'0 0.0
2017-Dec-11 02:00N 27°49' W 097°24'1 1.6
2017-Dec-11 01:30N 27°49' W 097°23'4 8.2
2017-Dec-11 01:00N 27°49' W 097°18'4 8.0
2017-Dec-11 00:29N 27°49' W 097°14'4 7.7
2017-Dec-11 00:00N 27°50' W 097°10'4 7.4
2017-Dec-10 23:29N 27°50' W 097°05'3 6.4
2017-Dec-10 22:59N 27°53' W 097°03'4 7.8
2017-Dec-10 22:30N 27°56' W 097°04'3 6.6
2017-Dec-10 21:59N 27°59' W 097°02'3 7.2
2017-Dec-10 21:30N 28°02' W 096°60'4 6.9
2017-Dec-10 21:00N 28°05' W 096°57'3 6.7
2017-Dec-10 20:29N 28°08' W 096°55'3 6.4
2017-Dec-10 20:00N 28°10' W 096°53'3 5.7
2017-Dec-10 19:29N 28°12' W 096°50'129 2.7
2017-Dec-08 20:10N 29°31' W 094°53'1 8.6
2017-Dec-08 20:00N 29°32' W 094°54'4 8.2
2017-Dec-08 19:30N 29°36' W 094°57'4 7.3
2017-Dec-08 19:00N 29°39' W 094°58'4 8.0
2017-Dec-08 18:29N 29°42' W 095°01'5 6.9
2017-Dec-08 17:46N 29°46' W 095°05'3 6.8
2017-Dec-08 17:22N 29°44' W 095°08'4 6.8
2017-Dec-08 16:51N 29°44' W 095°12'0 0.1
2017-Dec-08 16:29N 29°44' W 095°12'0 0.0
2017-Dec-08 16:00N 29°44' W 095°12'0 0.0
2017-Dec-08 15:29N 29°45' W 095°12'0 0.0
2017-Dec-08 14:59N 29°44' W 095°12'0 0.0
2017-Dec-08 14:18N 29°44' W 095°12'0 0.0
2017-Dec-08 13:52N 29°44' W 095°12'0 0.0
2017-Dec-08 13:21N 29°44' W 095°12'0 0.0
2017-Dec-08 12:59N 29°44' W 095°12'0 0.0
2017-Dec-08 12:30N 29°44' W 095°12'0 0.0
2017-Dec-08 12:00N 29°44' W 095°12'0 0.0
2017-Dec-08 11:30N 29°44' W 095°12'0 0.0
2017-Dec-08 11:00N 29°44' W 095°12'0 0.0
2017-Dec-08 10:30N 29°44' W 095°12'0 0.0
2017-Dec-08 10:00N 29°44' W 095°12'0 0.0
2017-Dec-08 09:30N 29°44' W 095°12'0 0.0
2017-Dec-08 09:00N 29°44' W 095°12'0 0.0
2017-Dec-08 08:30N 29°44' W 095°12'0 0.0
2017-Dec-08 08:00N 29°44' W 095°12'0 0.0
2017-Dec-08 07:30N 29°44' W 095°12'0 0.0
2017-Dec-08 07:00N 29°44' W 095°12'0 0.0
2017-Dec-08 06:31N 29°44' W 095°12'0 0.0
2017-Dec-08 05:59N 29°45' W 095°12'0 0.0
2017-Dec-08 05:30N 29°44' W 095°12'0 0.0
2017-Dec-08 05:00N 29°44' W 095°12'0 0.0
2017-Dec-08 04:30N 29°44' W 095°12'0 0.0
2017-Dec-08 04:00N 29°44' W 095°12'0 0.0
2017-Dec-08 03:31N 29°44' W 095°12'0 0.0
2017-Dec-08 03:00N 29°44' W 095°12'0 0.0
2017-Dec-08 02:30N 29°44' W 095°12'0 0.0
2017-Dec-08 02:00N 29°44' W 095°12'0 0.0
2017-Dec-08 01:29N 29°44' W 095°12'0 0.0
2017-Dec-08 00:57N 29°44' W 095°12'0 0.0
2017-Dec-08 00:30N 29°44' W 095°12'0 0.0
2017-Dec-07 23:04N 29°44' W 095°12'0 0.0
2017-Dec-07 22:55N 29°45' W 095°12'0 0.0
2017-Dec-07 22:29N 29°44' W 095°12'0 0.0
2017-Dec-07 21:27N 29°44' W 095°12'0 0.0
2017-Dec-07 19:59N 29°45' W 095°12'0 0.0
2017-Dec-07 17:26N 29°45' W 095°12'0 0.0
2017-Dec-07 16:59N 29°45' W 095°12'0 0.0
2017-Dec-07 16:27N 29°45' W 095°12'0 0.0
2017-Dec-07 15:49N 29°45' W 095°12'0 0.0
2017-Dec-07 14:31N 29°45' W 095°12'0 0.0
2017-Dec-07 14:29N 29°45' W 095°12'0 0.0
2017-Dec-07 13:59N 29°45' W 095°12'0 0.0
2017-Dec-07 13:30N 29°45' W 095°12'0 0.0
2017-Dec-07 12:59N 29°45' W 095°12'0 0.0
2017-Dec-07 12:30N 29°45' W 095°12'0 0.0
2017-Dec-07 11:59N 29°45' W 095°12'1 2.6
2017-Dec-07 11:30N 29°45' W 095°11'2 5.0
2017-Dec-07 11:00N 29°44' W 095°08'3 5.2
2017-Dec-07 10:27N 29°46' W 095°05'1 0.9
2017-Dec-07 09:03N 29°47' W 095°06'0 0.0
2017-Dec-07 07:26N 29°47' W 095°06'0 0.1
2017-Dec-07 02:19N 29°47' W 095°05'1 1.6
2017-Dec-07 01:28N 29°46' W 095°05'2 3.6
2017-Dec-07 01:00N 29°45' W 095°04'0 0.4
2017-Dec-07 00:30N 29°45' W 095°04'  
2017-Dec-04 06:54N 29°47' W 095°06'0 0.0
2017-Dec-04 06:07N 29°47' W 095°06'0 0.0
2017-Dec-04 05:56N 29°47' W 095°06'0 0.0
2017-Dec-04 05:28N 29°47' W 095°06'0 0.0
2017-Dec-04 04:55N 29°47' W 095°06'0 0.0
2017-Dec-04 04:29N 29°47' W 095°06'0 0.0
2017-Dec-04 03:49N 29°47' W 095°06'0 0.0
2017-Dec-04 03:29N 29°47' W 095°06'0 0.0
2017-Dec-04 02:57N 29°47' W 095°06'0 0.0
2017-Dec-04 02:04N 29°47' W 095°06'0 0.0
2017-Dec-04 01:31N 29°47' W 095°06'0 0.0
2017-Dec-03 19:33N 29°47' W 095°06'0 0.0
2017-Dec-03 19:06N 29°47' W 095°06'0 0.0
2017-Dec-03 18:21N 29°47' W 095°06'0 0.0
2017-Dec-03 16:45N 29°47' W 095°06'0 0.0
2017-Dec-03 14:35N 29°47' W 095°06'0 0.0
2017-Dec-03 14:26N 29°47' W 095°06'0 0.0
2017-Dec-03 13:46N 29°47' W 095°06'0 0.0
2017-Dec-03 13:05N 29°47' W 095°06'0 0.0
2017-Dec-03 12:58N 29°47' W 095°06'0 0.0
2017-Dec-03 12:15N 29°47' W 095°06'0 0.0
2017-Dec-03 11:53N 29°47' W 095°06'0 0.0
2017-Dec-03 11:20N 29°47' W 095°06'0 0.0
2017-Dec-03 10:58N 29°47' W 095°06'0 0.0
2017-Dec-03 10:21N 29°47' W 095°06'0 0.0
2017-Dec-03 10:00N 29°47' W 095°06'0 0.0
2017-Dec-03 09:27N 29°47' W 095°06'0 0.0
2017-Dec-03 09:00N 29°47' W 095°06'0 0.0
2017-Dec-03 08:30N 29°47' W 095°06'0 0.0
2017-Dec-03 07:58N 29°47' W 095°06'0 0.0
2017-Dec-03 07:30N 29°47' W 095°06'0 0.0
2017-Dec-03 07:00N 29°47' W 095°06'0 0.0
2017-Dec-03 06:30N 29°47' W 095°06'0 0.0
2017-Dec-03 06:00N 29°47' W 095°06'0 0.0
2017-Dec-03 05:30N 29°47' W 095°06'0 0.0
2017-Dec-03 05:00N 29°47' W 095°06'0 0.0
2017-Dec-03 04:30N 29°47' W 095°06'0 0.0
2017-Dec-03 04:00N 29°47' W 095°06'0 0.0
2017-Dec-03 03:30N 29°47' W 095°06'0 0.0
2017-Dec-03 03:00N 29°47' W 095°06'0 0.0
2017-Dec-03 02:30N 29°47' W 095°06'0 0.0
2017-Dec-03 01:58N 29°47' W 095°06'0 0.0
2017-Dec-03 01:28N 29°47' W 095°06'0 0.0
2017-Dec-03 01:00N 29°47' W 095°06'  

Dump ship's entire track history